Pos.Doss.NomPrenomTempsVit.Moy.Allure Pos. catégCatégorie Points Club
1 10174 RAPAGNA ANTONIO 00:00:00
Warning: Division by zero in /home/cjpluvmv/www/challenge/resultats2/resultats_functions.php on line 218
0
00:00:00 1Vétérans 3 1000
2 10296 DENEFFE GUILLAUME 01:04:21 14.92 00:04:01 1Séniors 997
3 10182 KIRKEMBOI ISAAC 01:06:47 14.37 00:04:10 2Séniors 995 SERAING ATHLÉTISME
4 10204 DETRIXHE MICHAEL 01:07:16 14.27 00:04:12 3Séniors 992 ATC
5 10190 LAMBOTTE BENOIT 01:08:09 14.09 00:04:16 1Vétérans 1 989 OUFTEAM
6 10195 MAKACI MOURAD 01:10:02 13.71 00:04:23 4Séniors 986
7 133 SCHOLZEN CHRISTOPHE 01:10:10 13.68 00:04:23 5Séniors 984 TEAM SOMJA
8 10287 SPANU EDOUARD 01:10:32 13.61 00:04:25 6Séniors 981
9 10295 NIZET KEVIN 01:10:50 13.55 00:04:26 7Séniors 978 EGRT
10 10232 FABRE FLORIAN 01:11:04 13.51 00:04:27 8Séniors 975
11 10154 SANZ LEANDRO 01:11:34 13.41 00:04:28 9Séniors 973 GIGA CONSCIOUSNESS
12 10448 COUNET CLEMENT 01:12:50 13.18 00:04:33 10Séniors 970
13 177 OLIVIER LAURENT 01:13:05 13.14 00:04:34 2Vétérans 1 967 CHALLENGE L AVENIR
14 10270 DEWAIDE ANTONI 01:13:32 13.06 00:04:36 3Vétérans 1 964 AD
15 10254 REUTER GREGORY 01:13:42 13.03 00:04:36 11Séniors 962
16 41 DEBATTY HERVE 01:13:49 13.01 00:04:37 4Vétérans 1 959
17 10234 TERMEER ROBBIE 01:14:27 12.89 00:04:39 12Séniors 956
18 205 BAAR GRÉGORY 01:15:04 12.79 00:04:42 13Séniors 954 TEAM SOMJA
19 10288 LECHANTEUR ABANDONNE 01:15:17 12.75 00:04:42 5Vétérans 1 951
20 10221 LAMBERTY HELORI 01:15:34 12.7 00:04:43 14Séniors 948 SERAING ATHLÉTISME
21 10086 DELATHUY FREDERIC 01:15:42 12.68 00:04:44 15Séniors 945
22 10317 JACQUERIE PIERRE 01:16:16 12.59 00:04:46 16Séniors 943
23 10409 BOUVIER JONAS 01:16:24 12.57 00:04:47 17Séniors 940
24 10465 OLIVIER OLIVIER 01:16:31 12.55 00:04:47 18Séniors 937
25 10466 ZOCCHI PIERRE 01:16:37 12.53 00:04:47 19Séniors 934
26 170 DOYEN DAVID 01:17:06 12.45 00:04:49 1Vétérans 2 932 SER ATHL
27 10070 BUYDENS GUILLAUME 01:17:36 12.37 00:04:51 20Séniors 929 TEAM MCP
28 10013 FROIDCOEUR XAVIER 01:17:45 12.35 00:04:52 6Vétérans 1 926
29 10424 MERCIADRI LUCA 01:18:18 12.26 00:04:54 21Séniors 923
30 10202 DEGEE SOPHIE 01:18:18 12.26 00:04:54 1Dames 921
31 10172 HAOUCHINE HASSN 01:18:41 12.2 00:04:55 2Vétérans 2 918
32 115 GUISSART ALAIN 01:18:45 12.19 00:04:55 7Vétérans 1 915
33 10325 MELON FLORIAN 01:19:12 12.12 00:04:57 22Séniors 913
34 10381 ARGENTO CARMELO 01:19:18 12.11 00:04:57 23Séniors 910
35 10297 VANHEESBEKE NICOLAS 01:19:19 12.1 00:04:57 24Séniors 907
36 10459 LEDRUS JULIEN 01:20:06 11.99 00:05:00 25Séniors 904
37 10353 PRINCIPATO BENOIT 01:20:23 11.94 00:05:01 26Séniors 902
38 10291 EVRARD JEAN-FRANCOIS 01:20:57 11.86 00:05:04 8Vétérans 1 899 TDCH
39 10364 LEJEUNE CHRISTOPHE 01:21:27 11.79 00:05:05 3Vétérans 2 896
40 92 BUCKINX ETIENNE 01:21:37 11.76 00:05:06 4Vétérans 2 893 RFCL
41 10228 FAUCHEUX VICTOR 01:21:39 11.76 00:05:06 1Espoirs H 891
42 10140 PIERRE FREDERIC* 01:21:46 11.74 00:05:07 9Vétérans 1 888
43 10227 MARCHAL LUDOVIC 01:22:35 11.62 00:05:010 10Vétérans 1 885 JIA
44 400 JORIS JONATHAN 01:22:42 11.61 00:05:10 27Séniors 883 TEAM SOMJA
45 10011 DEFECHEREUX FABIAN 01:22:59 11.57 00:05:11 11Vétérans 1 880
46 10422 FRANCQ SEBASTIEN 01:23:13 11.54 00:05:12 28Séniors 877 CO LIEGE
47 10289 SIMON JEAN-CHRISTOPHE 01:23:16 11.53 00:05:12 29Séniors 874
48 290 BOVY JEAN LUC 01:23:20 11.52 00:05:13 5Vétérans 2 872 RFCL
49 456 NIHANT FABIAN 01:23:23 11.51 00:05:13 6Vétérans 2 869
50 10373 373 N.N. 01:23:25 11.51 00:05:13 ?
51 373 LECOQ FRANCOIS 01:23:25 11.51 00:05:13 2Espoirs H 866 JIA
52 10097 FOLDESI DAVID 01:23:29 11.5 00:05:13 12Vétérans 1 863 BERLOZ
53 10430 PETIT PASCAL 01:23:44 11.46 00:05:14 13Vétérans 1 861
54 6 EVRARD ROLAND 01:23:54 11.44 00:05:15 30Séniors 858
55 10207 VENERUCCI GIUSEPPE 01:24:13 11.4 00:05:16 7Vétérans 2 855 JIA
56 10197 FISCHER RAPHAEL 01:24:17 11.39 00:05:16 31Séniors 852
57 10290 TROIANO MICHAEL 01:24:22 11.38 00:05:16 14Vétérans 1 850 TDCH
58 68 CHUDYBA JEAN-MARIE 01:24:27 11.37 00:05:17 8Vétérans 2 847 RUN IN LIEGE
59 10467 MOESEN JEAN-FRANCOIS 01:24:39 11.34 00:05:17 15Vétérans 1 844
60 10330 DEKNOP ERIC 01:24:48 11.32 00:05:18 16Vétérans 1 842 TURBO
61 10210 DEGUELDRE VINCENT 01:24:53 11.31 00:05:18 32Séniors 839 TEAM RUNNING SOMJA
62 10017 ROSU MELANIE 01:24:57 11.3 00:05:19 2Dames 836
63 10274 VOLDERS FRANCIS 01:24:57 11.3 00:05:19 9Vétérans 2 833 WACO
64 10253 DEFLANDRE GILLES 01:25:00 11.29 00:05:19 33Séniors 831
65 10386 HUG LUDWIG 01:25:08 11.28 00:05:19 34Séniors 828 SG METTINGEN-KRENKINGEN
66 10247 HEWARIX THOMAS 01:25:17 11.26 00:05:20 35Séniors 825
67 10134 NACHI GHASSEN 01:25:49 11.19 00:05:22 36Séniors 822 GHASSEN NACHI
68 10458 LEHANCE PASCAL 01:26:00 11.16 00:05:23 17Vétérans 1 820
69 10319 PANS MARINE 01:26:00 11.16 00:05:23 3Dames 817 RFCL
70 10004 DELVAUX BENOIT 01:26:07 11.15 00:05:23 37Séniors 814
71 10427 FONTAINE FABRICE 01:26:34 11.09 00:05:25 10Vétérans 2 811 JIA
72 10193 BEELEN BORIS 01:26:52 11.05 00:05:26 38Séniors 809 BROKLM
73 10248 DORZEE HUGUES 01:26:53 11.05 00:05:26 18Vétérans 1 806
74 10030 DEBIOLLE VINCENT 01:27:03 11.03 00:05:26 11Vétérans 2 803
75 117 DEJARDIN FRED 01:27:15 11 00:05:27 19Vétérans 1 801 I LOVE RUNNING LIÈGE
76 10285 PARENT LIONEL 01:27:15 11 00:05:27 20Vétérans 1 798 JCPMF VERLAINE
77 10117 LA COLA GIOACHINO 01:27:16 11 00:05:27 12Vétérans 2 795 RAIL38
78 10024 NAA CHRISTOPHE 01:27:19 10.99 00:05:27 21Vétérans 1 792
79 10334 HONIN MARIE 01:27:23 10.99 00:05:28 4Dames 790
80 10205 GRAINDORGE FREDERIC 01:27:51 10.93 00:05:29 22Vétérans 1 787
81 10358 AGIS ROBIN 01:28:00 10.91 00:05:30 39Séniors 784
82 10010 LENNES PIERRE 01:28:10 10.89 00:05:31 2Vétérans 3 781
83 10022 NERRINCK GILLES 01:28:11 10.89 00:05:31 40Séniors 779
84 10376 BAUDEAU HUGO 01:28:11 10.89 00:05:31 ?
85 10349 WATHELET DAVID 01:28:18 10.87 00:05:31 23Vétérans 1 776
86 10453 VROOMEN DAVID 01:28:22 10.86 00:05:31 24Vétérans 1 773 TCBM
87 10082 DACIER AURORE 01:28:44 10.82 00:05:33 5Dames 770
88 10442 LUYCKX CHRISTOPHE 01:28:49 10.81 00:05:33 41Séniors 768 BASSENGE RUNNERS
89 10443 GUCKEL IRWIN 01:28:57 10.79 00:05:34 25Vétérans 1 765
90 10252 OUAHID ABDALLAH 01:29:04 10.78 00:05:34 13Vétérans 2 762
91 10329 KAIM STEVE 01:29:06 10.77 00:05:34 42Séniors 760
92 123 PISCART FRANCOISE 01:29:16 10.75 00:05:35 1Ainées 1 757
93 10457 BETRAND OLIVIER 01:29:24 10.74 00:05:35 26Vétérans 1 754
94 10428 SLESINGEROVA EVA 01:29:27 10.73 00:05:35 6Dames 751 JIA
95 10350 SCHARIS ALEXANDRE 01:29:33 10.72 00:05:36 43Séniors 749
96 10450 KERIS MONIQUE 01:29:53 10.68 00:05:37 1Ainées 2 746 RUN IN LIÈGE
97 10347 DELOGE JEAN-FRANCOIS 01:30:00 10.67 00:05:38 27Vétérans 1 743
98 10286 PINSART LAURENT 01:30:07 10.65 00:05:38 28Vétérans 1 740 TITRARAID SERAING
99 10383 PONCELET STEPHAN 01:30:16 10.64 00:05:39 14Vétérans 2 738 I LOVE RUNNING LIÈGE
100 10268 PIGEON DENIS 01:30:20 10.63 00:05:39 29Vétérans 1 735
101 10079 CHEVARIN TITOUAN 01:30:42 10.58 00:05:40 44Séniors 732
102 10420 DALLA CORTE LUDOVIC 01:31:04 10.54 00:05:42 45Séniors 730
103 10150 ROBERT BENJAMIN** 01:31:07 10.54 00:05:42 30Vétérans 1 727 LES FRELONS
104 377 RAPAGNA ANTONIO 01:31:08 10.53 00:05:42 3Vétérans 3 724
105 10367 DEVAUX BRICE 01:31:19 10.51 00:05:42 46Séniors 721 VB ESNEUX
106 10436 THONNARD EMILIE 01:31:23 10.51 00:05:43 7Dames 719
107 10224 GALDEROUX JULIEN 01:31:30 10.49 00:05:43 47Séniors 716
108 10382 VAWBRABANT RAPHAEL 01:31:35 10.48 00:05:43 31Vétérans 1 713 HERSTAL
109 10158 SONTAG THIERRY 01:31:37 10.48 00:05:44 32Vétérans 1 710
110 10003 DELVAUX JEAN-MARC 01:31:39 10.47 00:05:44 48Séniors 708
111 10104 GHEURY PHILIPPE 01:31:40 10.47 00:05:44 33Vétérans 1 705 SER ATHL
112 10433 STICCA TIBERIO 01:31:47 10.46 00:05:44 49Séniors 702
113 10191 CUTILLO MARCELLO 01:31:53 10.45 00:05:45 34Vétérans 1 699
114 10141 POLLENUS THOMAS 01:32:00 10.43 00:05:45 50Séniors 697 THOMAS POLLENUS
115 10417 TANS LAURENT 01:32:09 10.42 00:05:46 51Séniors 694
116 43 CUPPENS BENOÎT 01:32:23 10.39 00:05:46 35Vétérans 1 691
117 10225 DETROZ ARNAUD 01:32:30 10.38 00:05:47 52Séniors 689
118 452 EUGENE SEBASTIEN 01:32:31 10.38 00:05:47 36Vétérans 1 686
119 10324 LEFEBVRE PASCAL 01:32:40 10.36 00:05:48 15Vétérans 2 683
120 10407 KELLENS MICHEL 01:32:42 10.36 00:05:48 16Vétérans 2 680 RDV RUN
121 10222 FONTAINE SERGE 01:32:46 10.35 00:05:48 37Vétérans 1 678
122 10198 VERHAEGHE JULIEN 01:32:47 10.35 00:05:48 53Séniors 675 TRIATLIÈGE
123 10320 BALAZUN ALIZEE 01:32:47 10.35 00:05:48 8Dames 672 JCH
124 10366 SEYNAEVE LAURENT 01:32:54 10.33 00:05:48 38Vétérans 1 669
125 10322 TEDESCO SALVATORE 01:32:58 10.33 00:05:49 39Vétérans 1 667 GLAIN RUN
126 10122 LAURENT DAVID** 01:33:13 10.3 00:05:50 54Séniors 664
127 10278 GUIDOSSE QUENTIN 01:33:22 10.28 00:05:50 55Séniors 661
128 10164 VONDENHOFF ALAIN 01:33:25 10.28 00:05:50 56Séniors 658 FNO6
129 360 WEERTS JEAN 01:33:29 10.27 00:05:51 40Vétérans 1 656
130 10018 HENNEN OLIVIER 01:33:40 10.25 00:05:51 41Vétérans 1 653
131 10359 HOCK MICHAEL 01:33:45 10.24 00:05:52 57Séniors 650 L AVENIR
132 10167 ZARADZKI DAVID 01:33:52 10.23 00:05:52 42Vétérans 1 648
133 10363 WITTERVRONGEL CHRISTOPHE 01:33:59 10.21 00:05:52 43Vétérans 1 645 RFCL
134 36 BYNENS NICOLAS 01:34:00 10.21 00:05:53 4Vétérans 3 642 JUPRELLE
135 10002 DENDAL DIDIER 01:34:11 10.19 00:05:53 17Vétérans 2 639
136 10171 LHOEST VINCENT 01:34:15 10.19 00:05:53 18Vétérans 2 637
137 10421 MARCHAL DAVID 01:34:15 10.19 00:05:53 58Séniors 634
138 10063 BIDOUL GIL 01:34:22 10.17 00:05:54 59Séniors 631
139 10192 ETIENNE BERNARD 01:34:27 10.16 00:05:54 19Vétérans 2 628
140 10301 LAMBION PIERRE 01:34:29 10.16 00:05:54 60Séniors 626
141 10156 SMEETS RONALD 01:34:36 10.15 00:05:55 20Vétérans 2 623
142 10454 MARQUET LAURENCE 01:34:41 10.14 00:05:55 44Vétérans 1 620
143 10081 COLLARD LUCIEN 01:34:45 10.13 00:05:55 5Vétérans 3 617
144 10250 LEMOINE LUC 01:34:56 10.11 00:05:56 45Vétérans 1 615 WRC LIERNEUX
145 10352 VERDAY SYLVAIN 01:35:00 10.11 00:05:56 61Séniors 612
146 10029 COLBACK STEPHANE 01:35:08 10.09 00:05:57 46Vétérans 1 609
147 10230 LEONARD GEOFFREY 01:35:11 10.09 00:05:57 62Séniors 607
148 10463 DARDENNE NICO 01:35:15 10.08 00:05:57 63Séniors 604
149 78 MULLENS LAURENT 01:35:19 10.07 00:05:57 47Vétérans 1 601
150 10351 JEUKENS MICHEL 01:35:21 10.07 00:05:58 48Vétérans 1 598
151 10375 HANUSSEK HERVE 01:35:21 10.07 00:05:58 64Séniors 596 JIA
152 10116 KEVELAER BEATRICE 01:35:27 10.06 00:05:58 2Ainées 1 593 TEAM RUNNING SOMJA
153 10009 JOWAY ERIC 01:35:27 10.06 00:05:58 21Vétérans 2 590
154 24 GUILLIAMS MAUD 01:35:38 10.04 00:05:59 9Dames 587 JOG IN ATTITUDE
155 10161 THIRION NATHALIE 01:35:50 10.02 00:05:59 3Ainées 1 585 TCBM
156 10397 BERODE JEROME 01:35:56 10.01 00:05:60 49Vétérans 1 582 BHL
157 10166 WATAR FRANCIS 01:36:02 10 00:06:00 50Vétérans 1 579 FRANCIS WATAR
158 10259 MOULET BORIS 01:36:02 10 00:06:00 65Séniors 577 CAC
159 10306 GARROY CHRISTOPHE 01:36:30 9.95 00:06:02 51Vétérans 1 574
160 73 D AMICO SALVINO 01:36:31 9.95 00:06:02 52Vétérans 1 571
161 10269 TREVI DOMI 01:36:37 9.94 00:06:02 53Vétérans 1 568
162 10335 DAVIN JEAN-FRANCOIS 01:36:39 9.93 00:06:02 66Séniors 566
163 10344 LOGNARD MICHAEL 01:36:51 9.91 00:06:03 67Séniors 563
164 10337 CARABIN PHILIPPE 01:36:56 9.9 00:06:04 6Vétérans 3 560
165 10084 DEGBOMONT CAROLINE 01:37:09 9.88 00:06:04 4Ainées 1 557 CAROLINE DEGBOMONT
166 10281 BRACONE CHRISTELLE 01:37:12 9.88 00:06:05 10Dames 555
167 32 RIGO MICHEL 01:37:31 9.84 00:06:06 54Vétérans 1 552
168 10133 MUNDA MARCO 01:37:39 9.83 00:06:06 68Séniors 549
169 10267 HOOGEBOOM RONALD 01:37:45 9.82 00:06:07 55Vétérans 1 546 STB
170 10368 MUTAMBA JOHAN 01:37:46 9.82 00:06:07 69Séniors 544 US LIEGE
171 10402 LACRIOLA JONATHAN 01:37:47 9.82 00:06:07 70Séniors 541
172 10263 HALLET PHILIPPE 01:37:54 9.81 00:06:07 56Vétérans 1 538
173 385 LETELLIER J LUC 01:38:01 9.79 00:06:08 22Vétérans 2 536
174 10423 DELHEZ CLAUDE 01:38:02 9.79 00:06:08 23Vétérans 2 533 RUN IN LIÈGE
175 10323 GILARDINI PATRICE 01:38:04 9.79 00:06:08 57Vétérans 1 530 GLAIN RUN
176 10102 GENICOT CHLOE 01:38:07 9.78 00:06:08 11Dames 527 CHLOÉ GENICOT
177 10176 JEAN JOEL 01:38:18 9.77 00:06:09 24Vétérans 2 525 BMFA
178 10441 GABRIEL BENJAMIN 01:38:21 9.76 00:06:09 71Séniors 522
179 10233 TERRADE YVES 01:38:26 9.75 00:06:09 58Vétérans 1 519 JCPMF TINLOT
180 223 MANFÉ DIMITRI 01:38:32 9.74 00:06:010 72Séniors 516 JIA
181 10413 LEBON SERGE 01:38:47 9.72 00:06:10 25Vétérans 2 514 RONDCHEUX
182 10129 MARTINEZ AMELIA 01:38:49 9.71 00:06:11 5Ainées 1 511 HST
183 120 FERNANDEZ HERRERA BERNARD 01:38:51 9.71 00:06:11 59Vétérans 1 508 SODEXO RUN
184 39 RADI GIOVANNI 01:38:54 9.71 00:06:11 73Séniors 505
185 10240 SLUYSMANS MARTIN 01:39:01 9.7 00:06:11 26Vétérans 2 503 HERVE
186 10277 BERTRAND PATRICK 01:39:06 9.69 00:06:12 60Vétérans 1 500
187 10380 PROFITA PIERRE 01:39:15 9.67 00:06:12 74Séniors 497 JCH
188 10119 LACOLA PIERO 01:39:20 9.66 00:06:13 27Vétérans 2 495 FNO6
189 10217 ROYEN SANNY 01:39:23 9.66 00:06:13 75Séniors 492
190 10345 DHEUR MARTIAL 01:39:32 9.65 00:06:13 28Vétérans 2 489 JIA
191 10099 GANDELIN CORALIE 01:39:33 9.64 00:06:13 12Dames 486 CORALIE GANDELIN
192 10239 LEGROS ELISE 01:39:43 9.63 00:06:14 13Dames 484 CUREGHEM VÉTÉRINAIRE
193 10012 PIRARD CATHERINE 01:40:08 9.59 00:06:16 6Ainées 1 481
194 10073 BUYDENS JEAN-MARC 01:40:30 9.55 00:06:17 29Vétérans 2 478 JEAN-MARC BUYDENS
195 10226 CICCARELLA TONY 01:40:54 9.51 00:06:18 61Vétérans 1 475
196 10405 PINCHARD LUC 01:41:00 9.5 00:06:19 2Ainées 2 473 RONDE + EUX
197 10211 VAN HESPEN BENOIT 01:41:57 9.42 00:06:22 30Vétérans 2 470
198 10218 BROUX TOM 01:42:01 9.41 00:06:23 76Séniors 467
199 10064 BLANCHY JEAN-LOUP 01:42:18 9.38 00:06:24 7Vétérans 3 464 JEAN-LOUP BLANCHY
200 10414 GREGOIRE VIRGINIE 01:42:28 9.37 00:06:24 7Ainées 1 462 JOGGEURS DE SUZIN
201 10348 MOUREAU ADRIEN 01:42:34 9.36 00:06:25 77Séniors 459
202 10415 WOTRON PASCAL 01:42:40 9.35 00:06:25 31Vétérans 2 456 JOGGEURS DE SUZIN
203 10403 BOLSEE JEAN-CHRISTOHE 01:42:40 9.35 00:06:25 62Vétérans 1 454
204 10374 DELHOUGNE ANNE-SOPHIE 01:42:48 9.34 00:06:26 14Dames 451
205 10372 VAN HEE THOMAS 01:42:49 9.34 00:06:26 78Séniors 448
206 10241 MEYS CLAUDE 01:42:59 9.32 00:06:26 32Vétérans 2 445 HERVE AC
207 10411 MOTTE DIT FALISSE OLIVIER 01:43:04 9.31 00:06:27 33Vétérans 2 443 RONDCHEUX
208 10401 SCHOONBROODT AUDRIC 01:43:15 9.3 00:06:27 79Séniors 440
209 19 PAQUAY MARC 01:43:21 9.29 00:06:28 63Vétérans 1 437
210 10095 ETIENNE PHILIPPE 01:43:25 9.28 00:06:28 80Séniors 434
211 10396 PIRLOT BERNARD 01:43:25 9.28 00:06:28 81Séniors 432 TEAM RUNNING SOMJA
212 42 DETRIXHE CHRISTOPHE 01:43:26 9.28 00:06:28 64Vétérans 1 429
213 258 DELREZ SANDRA 01:43:40 9.26 00:06:29 8Ainées 1 426 CJPL
214 61 DETHIER ALAIN 01:43:42 9.26 00:06:29 34Vétérans 2 423
215 10377 BAUDEAU JULIEN 01:43:45 9.25 00:06:29 65Vétérans 1 421
216 66 DAMBLON PATRICK 01:43:50 9.25 00:06:29 35Vétérans 2 418 CHALLENGE AVENIR
217 85 TRAN XUAN-MAI 01:43:50 9.25 00:06:29 9Ainées 1 415 ACBBS
218 255 DASSY LUDOVIC 01:44:10 9.22 00:06:31 82Séniors 413
219 10242 SEVRIN FABRICE 01:44:14 9.21 00:06:31 66Vétérans 1 410 RUNNING FERNELMONT
220 10346 LANGE CATHERINE 01:44:24 9.2 00:06:32 15Dames 407
221 10107 GROFILS DENIS 01:44:35 9.18 00:06:32 83Séniors 404
222 10105 GIANGIORDANO ANNE 01:44:36 9.18 00:06:32 10Ainées 1 402
223 10137 NICOLAS FRANCIS 01:44:37 9.18 00:06:32 36Vétérans 2 399
224 10339 CHAINEUX MARC 01:44:57 9.15 00:06:34 67Vétérans 1 396
225 10379 LECLERE CORENTIN 01:44:57 9.15 00:06:34 84Séniors 393 I LOVE RUNNING LIÈGE
226 10115 HOUTAIN JEAN-PAUL 01:45:03 9.14 00:06:34 37Vétérans 2 391 JIA
227 10093 DRAGOZIS MORGAN 01:45:12 9.13 00:06:35 85Séniors 388 VÉTÉRINAIRE CUREGHEM
228 10148 REYNERTZ SIMON 01:45:18 9.12 00:06:35 86Séniors 385 VÉTÉRINAIRE CUREGHEM
229 10455 RAMAEKERS MARC 01:45:24 9.11 00:06:35 38Vétérans 2 383
230 10456 MORTELMANS FREDERIK 01:45:25 9.11 00:06:35 39Vétérans 2 380
231 10462 DENNE ALEXANDRE 01:45:45 9.08 00:06:37 87Séniors 377
232 10091 DOTHEE MARC 01:45:48 9.07 00:06:37 40Vétérans 2 374 MARC DOTHEE
233 10028 DELHOUGNE BERNARD 01:45:51 9.07 00:06:37 41Vétérans 2 372
234 10378 PENNARTZ PIERRE 01:46:08 9.05 00:06:38 88Séniors 369 RIL
235 10360 BRUNINX ROMAIN 01:46:15 9.04 00:06:38 89Séniors 366
236 10390 KRICFALUSI MICHEL 01:46:34 9.01 00:06:40 42Vétérans 2 363
237 10392 LECLERCQ SABRINA 01:46:34 9.01 00:06:40 11Ainées 1 361
238 10434 LHOEST JEAN 01:46:35 9.01 00:06:40 8Vétérans 3 358
239 10145 RAMIREZ ALFONSO 01:46:40 9 00:06:40 90Séniors 355
240 10261 MEINGUET LAURENT 01:46:42 9 00:06:40 68Vétérans 1 352
241 10139 PAQUAY YANNICK 01:46:42 9 00:06:40 91Séniors 350
242 10439 NELIS BENOIT 01:46:43 9 00:06:40 43Vétérans 2 347 JCPMF
243 10429 DEBATTY JEAN-POL 01:46:45 8.99 00:06:40 44Vétérans 2 344
244 10393 MAZZULLI MARC 01:46:54 8.98 00:06:41 69Vétérans 1 342 ISOUSCOOL
245 10025 LARMINIER CLAUDE 01:47:01 8.97 00:06:41 9Vétérans 3 339 RUNNERS SERAING
246 10326 MARCHAL XAVIER 01:47:04 8.97 00:06:42 45Vétérans 2 336
247 10264 DE RE PATRICK 01:47:18 8.95 00:06:42 70Vétérans 1 333
248 10177 RADDOUX HUGO 01:47:32 8.93 00:06:43 10Vétérans 3 331
249 365 MAROT BERNARD 01:47:36 8.92 00:06:44 11Vétérans 3 328
250 10237 VUYLSTEKE PHILIPPE 01:48:12 8.87 00:06:46 46Vétérans 2 325
251 10309 FERNANDEZ RODRIGUEZ ANTONY 01:48:13 8.87 00:06:46 92Séniors 322
252 10468 VAN RYMENAM MICHAEL 01:48:20 8.86 00:06:46 93Séniors 320
253 10114 HERZET LUC** 01:48:33 8.84 00:06:47 94Séniors 317
254 10356 MORAY DIDIER 01:48:59 8.81 00:06:49 47Vétérans 2 314
255 10275 BELLAVIA STEPHANE 01:49:00 8.81 00:06:49 95Séniors 311
256 10183 REVAERS STEPHANE 01:49:05 8.8 00:06:49 48Vétérans 2 309
257 10203 HENRY FRANCOIS 01:49:07 8.8 00:06:49 96Séniors 306
258 226 EGGEN RENE 01:49:14 8.79 00:06:50 1Vétérans 4 303
259 10075 CAILLABA LAURENT 01:49:17 8.78 00:06:50 49Vétérans 2 301 RUNNING BREAK VAILLANTE JUPILLE
260 10361 WAUTELET GAETAN 01:49:37 8.76 00:06:51 97Séniors 298
261 10271 BOMAN ROMAIN 01:49:37 8.76 00:06:51 71Vétérans 1 295
262 10246 DUPLOUY GERARD 01:50:07 8.72 00:06:53 12Vétérans 3 292 ILR
263 10173 FALZONE CROCE 01:50:10 8.71 00:06:53 13Vétérans 3 290 AC NEUPRE
264 10157 SOMJA FLORENCE 01:50:11 8.71 00:06:53 16Dames 287
265 10440 HENROTTE ISALINE 01:50:17 8.7 00:06:54 17Dames 284
266 10127 MARCHAND ARNAUD 01:50:20 8.7 00:06:54 98Séniors 281
267 166 LEFORT PIERRE 01:50:32 8.69 00:06:55 72Vétérans 1 279 AMC
268 10151 RODRIGUEZ PATRICIA 01:50:38 8.68 00:06:55 3Ainées 2 276
269 10284 VAN DE WOUWER EMMANUEL 01:51:20 8.62 00:06:58 73Vétérans 1 273 SERAING ATHLÉTISME
270 10216 SMETS FRANK 01:51:23 8.62 00:06:58 99Séniors 270
271 10124 LECLERE SÉBASTIEN* 01:51:28 8.61 00:06:58 100Séniors 268 FNO6
272 10179 MAURO CALOGERO 01:51:36 8.6 00:06:59 2Vétérans 4 265
273 10327 HENNEN PASCAL 01:51:37 8.6 00:06:59 74Vétérans 1 262
274 10404 DANIELS VERONIQUE 01:51:42 8.59 00:06:59 4Ainées 2 260 RONCHEUX
275 10464 DRESSELAERS ADRIEN 01:52:02 8.57 00:07:00 101Séniors 257
276 10235 D OUIDIO RAPHAEL 01:52:10 8.56 00:07:01 75Vétérans 1 254 RUN IN LIÈGE
277 10308 PAPY RAPHAEL 01:52:15 8.55 00:07:01 102Séniors 251
278 10437 CIANCABILLA LAURA 01:52:18 8.55 00:07:01 18Dames 249
279 10385 GOURLAT EMMA 01:52:25 8.54 00:07:02 19Dames 246
280 10087 DELILLE BRUNO 01:52:31 8.53 00:07:02 76Vétérans 1 243
281 10384 BURETTE LAURA 01:52:38 8.52 00:07:02 20Dames 240
282 10410 GOUAT AUDREY 01:52:42 8.52 00:07:03 21Dames 238
283 10369 LSSUISE LAURENT 01:52:42 8.52 00:07:03 103Séniors 235
284 10123 LE TALLEC LOANN 01:52:46 8.51 00:07:03 104Séniors 232
285 10163 VERCOUTRE ROMANE 01:52:47 8.51 00:07:03 22Dames 230
286 10399 ABAD LAMAS PATRICIA 01:52:59 8.5 00:07:04 5Ainées 2 227
287 451 LIBERT JOELLE 01:53:05 8.49 00:07:04 6Ainées 2 224
288 55 MÉLON JULIEN 01:53:07 8.49 00:07:04 105Séniors 221 JOGGING ATTITUDE
289 10447 ANCION JEAN-PASCAL 01:53:55 8.43 00:07:07 50Vétérans 2 219
290 10444 PIRSON ERWIN 01:54:19 8.4 00:07:09 106Séniors 216
291 10398 DUBLET SERGE 01:55:26 8.32 00:07:13 14Vétérans 3 213 L AVENIR
292 10083 DE WIT JEAN-YVES 01:55:26 8.32 00:07:13 107Séniors 210
293 10328 DODET FABIAN 01:57:03 8.2 00:07:19 108Séniors 208
294 10059 BARDONECHE LORIS 01:57:23 8.18 00:07:20 109Séniors 205
295 10080 CLOSE JEAN-CHRISTOPHE 01:57:42 8.16 00:07:21 51Vétérans 2 202 RUN IN LIÈGE
296 11 BOSSELOIR ANNICK 01:57:49 8.15 00:07:22 7Ainées 2 199 RDV RUN
297 10425 DARDENNE MARIE-CELINE 01:57:53 8.14 00:07:22 23Dames 197
298 10110 HANSON THOMAS 01:57:53 8.14 00:07:22 110Séniors 194
299 10090 DIEUX CAROLINE 01:58:09 8.13 00:07:23 24Dames 191
300 10076 CAMBIER AURÉLIE 01:58:09 8.13 00:07:23 25Dames 189
301 10078 CAMBIER LUDIVINE 01:58:10 8.12 00:07:23 26Dames 186 LUDIVINE CAMBIER
302 10077 CAMBIER GEOFFREY 01:58:11 8.12 00:07:23 111Séniors 183 P8
303 375 LELOUP DOMINIQUE 01:58:19 8.11 00:07:24 8Ainées 2 180 RDV RUN BEYNE
304 10602 ELBOUZ LEILA 01:58:27 8.1 00:07:24 27Dames 178
305 10601 HIERNAUX MARINA 01:58:28 8.1 00:07:24 12Ainées 1 175
306 147 DRIESSENS PIERRE 01:58:32 8.1 00:07:25 3Vétérans 4 172 SERUNNERS
307 10168 ZULIANI ARNAUD 01:58:33 8.1 00:07:25 77Vétérans 1 169
308 10121 LASCHET SARAH 01:59:06 8.06 00:07:27 28Dames 167
309 10113 HENROTAY FREDERIC** 01:59:24 8.04 00:07:28 78Vétérans 1 164
310 10120 LALOUX HELENE 01:59:27 8.04 00:07:28 29Dames 161
311 10341 MEYLEMANS STEPHANIE 02:00:04 8 00:07:30 13Ainées 1 158 MJ SPORT
312 10340 JANSSENS JEAN 02:00:05 7.99 00:07:30 79Vétérans 1 156 MJ SPORT
313 10094 DUBOIS MATHIEU** 02:00:09 7.99 00:07:31 112Séniors 153
314 10162 VANNESTE MARGAUX 02:00:16 7.98 00:07:31 30Dames 150
315 10208 REMY MARC 02:00:17 7.98 00:07:31 52Vétérans 2 148
316 10147 REMY ELISE 02:00:17 7.98 00:07:31 31Dames 145
317 10406 BRICTEUX ALAIN 02:00:18 7.98 00:07:31 15Vétérans 3 142
318 10412 BOURDOUXHE CECILE 02:00:18 7.98 00:07:31 9Ainées 2 139 RONDCHEUX
319 10160 THANNEUR SOLEN 02:00:38 7.96 00:07:32 14Ainées 1 137
320 10111 HENRAR CLAIRE 02:00:39 7.96 00:07:32 10Ainées 2 134
321 10238 LEBICHOT JOHAN 02:00:44 7.95 00:07:33 80Vétérans 1 131 JCPMF ROCOURT
322 10008 ANDRIEN ERIC 02:00:44 7.95 00:07:33 53Vétérans 2 128
323 10132 MIEVIS KEVIN 02:00:45 7.95 00:07:33 113Séniors 126 JCPMF ROCOURT
324 10223 POLIZZI ANTONIO 02:00:46 7.95 00:07:33 54Vétérans 2 123
325 380 LUCAS YVES 02:01:14 7.92 00:07:35 114Séniors 120 JIA
326 10169 LUCAS PIERRE 02:01:15 7.92 00:07:35 16Vétérans 3 117
327 10446 NYSSEN PIERRE 02:01:28 7.9 00:07:36 55Vétérans 2 115
328 10418 ZANSMANS FRANCOISE 02:01:28 7.9 00:07:36 11Ainées 2 112 HF
329 10310 SCHEEN EMILIE 02:01:56 7.87 00:07:37 32Dames 109 RUNNING BREAK
330 10213 CALVO TONI 02:01:57 7.87 00:07:37 56Vétérans 2 107
331 10280 LEGRAND ANDRE 02:01:59 7.87 00:07:37 57Vétérans 2 104
332 10092 DOULTREMONT ELS 02:02:10 7.86 00:07:38 33Dames 101
333 10175 FRISSEN GERARD 02:02:22 7.85 00:07:39 58Vétérans 2 98
334 10118 LABOUREUR VALERIE 02:02:27 7.84 00:07:39 15Ainées 1 96
335 10152 SANFILIPPO CELIA 02:02:28 7.84 00:07:39 34Dames 93
336 10153 SANFILIPPO JOSEPH 02:02:28 7.84 00:07:39 59Vétérans 2 90
337 10062 BERTRAND ADRIEN 02:02:36 7.83 00:07:40 115Séniors 87
338 10258 QUINTILI JOSEPH 02:02:44 7.82 00:07:40 17Vétérans 3 85
339 10256 QUINTILI LAURENT 02:02:45 7.82 00:07:40 81Vétérans 1 82 RUNNING SAFE
340 10282 BRUGGEN NICOLE 02:02:50 7.82 00:07:41 12Ainées 2 79 JIA
341 10343 LECOCQ CELINE 02:03:10 7.79 00:07:42 35Dames 77
342 10342 ARNOLD PASCAL 02:03:11 7.79 00:07:42 60Vétérans 2 74
343 10338 DOPPEE MAGALI 02:03:11 7.79 00:07:42 36Dames 71
344 10370 DENOZ JULIEN 02:03:12 7.79 00:07:42 82Vétérans 1 68
345 10138 NOTELAERS CASSANDRE 02:07:08 7.55 00:07:57 37Dames 66 FNO6
346 10298 DE CORTE NELE 02:07:25 7.53 00:07:58 38Dames 63
347 10362 DELATTRE SEBASTIEN 02:07:58 7.5 00:07:60 83Vétérans 1 60
348 10262 HEYNS SONIA 02:08:21 7.48 00:08:01 16Ainées 1 57
349 10185 NEVEU MAELLE 02:09:53 7.39 00:08:07 39Dames 55
350 10186 DELLA LIBERA CLARA 02:09:54 7.39 00:08:07 40Dames 52
351 10159 STEIMES NATHALIE 02:09:58 7.39 00:08:07 17Ainées 1 49 SET ATHL
352 10187 SCHWARTZ CEDRIC 02:10:27 7.36 00:08:09 116Séniors 46
353 53 LARMINIER ANNE MARIE 02:10:36 7.35 00:08:010 1Ainées 3 44
354 10128 MARINO CHRISTOPHE 02:10:51 7.34 00:08:11 84Vétérans 1 41
355 9 HEYNS XAVIER 02:11:00 7.33 00:08:11 85Vétérans 1 38 RUN IN LIÈGE
356 10155 SCHAUS JULIE 02:11:12 7.32 00:08:12 41Dames 36 JCPMF ROCOURT
357 10438 BERTHA MATHIEU 02:11:12 7.32 00:08:12 117Séniors 33
358 10109 HACQUIN NATHALIE 02:11:19 7.31 00:08:12 18Ainées 1 30
359 10314 URBAIN PASCALE 02:13:26 7.19 00:08:20 19Ainées 1 27 JIA
360 10313 RENARD CHRISTINE 02:13:27 7.19 00:08:20 20Ainées 1 25 JIA
361 10312 HERKENNE AURELIE 02:13:27 7.19 00:08:20 42Dames 22 JIA
362 10452 BAILLY CHRISTELLE 02:13:27 7.19 00:08:20 21Ainées 1 19
363 10451 TAMIR CHRISTINE 02:13:27 7.19 00:08:20 43Dames 16
364 10321 LABADIA ANDREW 02:20:14 6.85 00:08:46 118Séniors 14
365 10101 GEMIS CORALIE 02:25:17 6.61 00:09:05 44Dames 11 JIA
366 10108 GROFILS SABINE 02:28:25 6.47 00:09:17 45Dames 8
367 10061 BERTRAM PETRA 02:32:17 6.3 00:09:31 22Ainées 1 5 SV GERMANIA DÜRWISS
368 10060 BERTRAM MARIA 02:32:24 6.3 00:09:32 2Ainées 3 3 SV GERMANIA DÜRWISS
10 Miles Thier a Liege 2019
Distance : 16.0 kms
368 coureurs
Normal Interclubs